createdAt,value
2019-05-22T00:00:29.036Z,5.90
2019-05-22T00:02:57.932Z,4.17
2019-05-22T00:05:31.302Z,7.65
2019-05-22T00:07:58.473Z,6.80
2019-05-22T00:10:25.637Z,6.25
2019-05-22T00:12:53.917Z,7.17
2019-05-22T00:15:23.281Z,6.62
2019-05-22T00:17:50.627Z,3.67
2019-05-22T00:20:22.018Z,4.33
2019-05-22T00:22:50.972Z,4.12
2019-05-22T00:25:22.638Z,4.75
2019-05-22T00:27:49.410Z,6.53
2019-05-22T00:30:17.588Z,7.05
2019-05-22T00:32:46.796Z,7.97
2019-05-22T00:35:14.064Z,4.65
2019-05-22T00:37:41.922Z,4.08
2019-05-22T00:40:11.886Z,9.88
2019-05-22T00:42:39.593Z,7.72
2019-05-22T00:45:11.817Z,5.97
2019-05-22T00:47:41.226Z,6.65
2019-05-22T00:50:12.197Z,4.53
2019-05-22T00:52:49.975Z,4.60
2019-05-22T00:55:22.152Z,6.83
2019-05-22T00:58:02.876Z,5.92
2019-05-22T01:00:49.774Z,6.15
2019-05-22T01:03:21.758Z,5.60
2019-05-22T01:05:48.497Z,8.33
2019-05-22T01:08:15.895Z,4.28
2019-05-22T01:10:44.549Z,5.05
2019-05-22T01:13:11.433Z,4.65
2019-05-22T01:15:40.222Z,7.45
2019-05-22T01:18:07.434Z,4.15
2019-05-22T01:20:36.491Z,6.35
2019-05-22T01:23:03.375Z,6.22
2019-05-22T01:25:30.967Z,4.58
2019-05-22T01:27:58.843Z,5.47
2019-05-22T01:30:27.816Z,6.20
2019-05-22T01:32:56.432Z,4.33
2019-05-22T01:35:28.330Z,5.20
2019-05-22T01:37:57.546Z,4.83
2019-05-22T01:40:32.214Z,5.65
2019-05-22T01:42:59.603Z,5.95
2019-05-22T01:45:27.141Z,5.10
2019-05-22T01:48:02.163Z,4.12
2019-05-22T01:50:52.157Z,4.83
2019-05-22T01:53:21.247Z,5.15
2019-05-22T01:55:50.712Z,5.75
2019-05-22T01:58:19.107Z,4.78
2019-05-22T02:00:47.302Z,4.97
2019-05-22T02:03:14.371Z,5.90
2019-05-22T02:05:42.148Z,3.95
2019-05-22T02:08:09.820Z,3.45
2019-05-22T02:10:39.892Z,4.03
2019-05-22T02:13:09.070Z,3.72
2019-05-22T02:15:37.255Z,7.90
2019-05-22T02:18:14.659Z,5.22
2019-05-22T02:20:41.741Z,5.53
2019-05-22T02:23:09.099Z,4.47
2019-05-22T02:25:37.151Z,7.12
2019-05-22T02:28:05.853Z,4.25
2019-05-22T02:30:35.585Z,4.65
2019-05-22T02:33:04.287Z,4.50
2019-05-22T02:35:30.977Z,5.05
2019-05-22T02:37:58.377Z,7.03
2019-05-22T02:40:28.857Z,3.75
2019-05-22T02:42:56.251Z,4.85
2019-05-22T02:45:24.009Z,4.75
2019-05-22T02:47:52.703Z,5.47
2019-05-22T02:50:19.677Z,6.08
2019-05-22T02:52:46.388Z,6.87
2019-05-22T02:55:14.061Z,5.20
2019-05-22T02:57:41.440Z,4.42
2019-05-22T03:00:08.487Z,3.85
2019-05-22T03:02:39.781Z,4.53
2019-05-22T03:05:08.973Z,5.25
2019-05-22T03:07:36.104Z,5.17
2019-05-22T03:10:05.322Z,4.58
2019-05-22T03:12:33.988Z,3.47
2019-05-22T03:15:01.368Z,7.15
2019-05-22T03:17:30.381Z,8.35
2019-05-22T03:19:59.418Z,6.35
2019-05-22T03:22:30.604Z,6.47
2019-05-22T03:25:01.547Z,3.55
2019-05-22T03:27:41.695Z,6.08
2019-05-22T03:30:17.336Z,5.78
2019-05-22T03:32:44.874Z,6.87
2019-05-22T03:35:12.453Z,5.37
2019-05-22T03:37:40.792Z,7.67
2019-05-22T03:40:08.621Z,5.83
2019-05-22T03:42:36.025Z,4.37
2019-05-22T03:45:07.321Z,5.92
2019-05-22T03:47:35.463Z,5.85
2019-05-22T03:50:06.013Z,6.03
2019-05-22T03:52:33.654Z,5.50
2019-05-22T03:55:00.307Z,8.63
2019-05-22T03:57:27.057Z,6.75
2019-05-22T03:59:55.417Z,6.55
2019-05-22T04:02:22.059Z,9.35
2019-05-22T04:04:48.616Z,5.62
2019-05-22T04:07:16.614Z,5.25
2019-05-22T04:09:44.343Z,4.75
2019-05-22T04:12:12.658Z,5.70
2019-05-22T04:14:39.802Z,6.87
2019-05-22T04:17:09.152Z,6.33
2019-05-22T04:19:48.833Z,6.15
2019-05-22T04:22:06.670Z,7.58
2019-05-22T04:24:33.423Z,7.42
2019-05-22T04:27:00.565Z,12.73
2019-05-22T04:29:27.730Z,10.32
2019-05-22T04:32:06.128Z,10.98
2019-05-22T04:34:33.068Z,11.03
2019-05-22T04:37:00.216Z,9.05
2019-05-22T04:39:29.171Z,7.72
2019-05-22T04:41:58.392Z,13.75
2019-05-22T04:44:26.053Z,17.12
2019-05-22T04:46:53.822Z,24.23
2019-05-22T04:49:21.121Z,41.08
2019-05-22T04:51:48.764Z,22.35
2019-05-22T04:54:15.925Z,12.95
2019-05-22T04:56:42.486Z,8.68
2019-05-22T04:59:11.094Z,11.18
2019-05-22T05:02:04.626Z,10.15
2019-05-22T05:04:31.937Z,4.87
2019-05-22T05:06:59.693Z,9.38
2019-05-22T05:09:27.184Z,7.53
2019-05-22T05:11:55.827Z,5.15
2019-05-22T05:14:22.634Z,10.48
2019-05-22T05:16:50.151Z,7.17
2019-05-22T05:19:17.547Z,11.75
2019-05-22T05:21:44.357Z,7.80
2019-05-22T05:24:11.007Z,16.42
2019-05-22T05:26:38.593Z,10.98
2019-05-22T05:29:08.550Z,9.55
2019-05-22T05:31:37.229Z,16.23
2019-05-22T05:34:25.851Z,11.38
2019-05-22T05:36:54.544Z,9.75
2019-05-22T05:39:37.180Z,9.20
2019-05-22T05:42:04.356Z,9.83
2019-05-22T05:44:31.084Z,9.43
2019-05-22T05:46:57.880Z,9.25
2019-05-22T05:49:26.344Z,7.90
2019-05-22T05:51:54.906Z,9.33
2019-05-22T05:54:22.767Z,10.93
2019-05-22T05:56:51.321Z,10.98
2019-05-22T05:59:19.955Z,10.90
2019-05-22T06:01:48.533Z,9.88
2019-05-22T06:04:34.726Z,11.28
2019-05-22T06:07:02.322Z,15.65
2019-05-22T06:09:30.292Z,12.75
2019-05-22T06:11:58.923Z,15.48
2019-05-22T06:14:28.866Z,14.83
2019-05-22T06:17:16.144Z,14.75
2019-05-22T06:19:52.718Z,15.20
2019-05-22T06:22:19.679Z,17.17
2019-05-22T06:24:59.316Z,11.80
2019-05-22T06:27:30.444Z,13.78
2019-05-22T06:30:04.131Z,12.37
2019-05-22T06:32:51.878Z,11.50
2019-05-22T06:35:18.733Z,11.35
2019-05-22T06:38:11.589Z,10.15
2019-05-22T06:40:39.473Z,9.70
2019-05-22T06:43:23.446Z,6.95
2019-05-22T06:45:50.507Z,9.03
2019-05-22T06:48:17.241Z,9.93
2019-05-22T06:50:43.872Z,9.20
2019-05-22T06:53:11.609Z,9.30
2019-05-22T06:55:38.172Z,9.98
2019-05-22T06:58:04.833Z,8.20
2019-05-22T07:00:31.492Z,13.72
2019-05-22T07:03:00.030Z,11.15
2019-05-22T07:05:27.489Z,10.58
2019-05-22T07:07:54.760Z,8.50
2019-05-22T07:10:21.521Z,10.88
2019-05-22T07:12:50.718Z,11.00
2019-05-22T07:15:21.000Z,9.63
2019-05-22T07:17:48.527Z,9.18
2019-05-22T07:20:15.971Z,12.37
2019-05-22T07:22:42.874Z,11.35
2019-05-22T07:25:12.002Z,9.60
2019-05-22T07:27:39.370Z,9.18
2019-05-22T07:30:08.406Z,9.50
2019-05-22T07:32:35.996Z,8.15
2019-05-22T07:35:07.805Z,7.78
2019-05-22T07:37:43.094Z,8.00
2019-05-22T07:40:11.857Z,5.33
2019-05-22T07:42:38.792Z,6.33
2019-05-22T07:45:06.451Z,9.38
2019-05-22T07:47:34.183Z,9.05
2019-05-22T07:50:00.947Z,9.58
2019-05-22T07:52:27.745Z,8.90
2019-05-22T07:54:55.045Z,6.65
2019-05-22T07:57:22.525Z,6.90
2019-05-22T07:59:50.286Z,9.78
2019-05-22T08:02:18.813Z,9.30
2019-05-22T08:04:45.864Z,6.50
2019-05-22T08:07:14.619Z,8.25
2019-05-22T08:09:41.302Z,8.45
2019-05-22T08:12:10.462Z,8.85
2019-05-22T08:14:37.632Z,10.55
2019-05-22T08:17:04.578Z,9.10
2019-05-22T08:19:31.736Z,6.45
2019-05-22T08:22:07.476Z,8.50
2019-05-22T08:24:27.237Z,9.00
2019-05-22T08:26:55.152Z,12.88
2019-05-22T08:29:21.923Z,8.38
2019-05-22T08:31:51.014Z,8.13
2019-05-22T08:34:18.367Z,12.85
2019-05-22T08:36:48.039Z,7.75
2019-05-22T08:39:15.578Z,8.98
2019-05-22T08:41:45.813Z,6.08
2019-05-22T08:44:16.678Z,6.97
2019-05-22T08:46:43.922Z,7.12
2019-05-22T08:49:11.578Z,6.97
2019-05-22T08:51:38.343Z,5.55
2019-05-22T08:54:06.008Z,5.97
2019-05-22T08:56:37.908Z,8.30
2019-05-22T08:59:18.850Z,8.65
2019-05-22T09:01:33.827Z,4.83
2019-05-22T09:04:00.392Z,5.85
2019-05-22T09:06:28.147Z,6.17
2019-05-22T09:08:54.898Z,4.85
2019-05-22T09:11:21.550Z,6.12
2019-05-22T09:13:48.299Z,6.45
2019-05-22T09:16:15.933Z,6.47
2019-05-22T09:18:42.680Z,7.37
2019-05-22T09:21:11.448Z,6.87
2019-05-22T09:23:40.277Z,5.25
2019-05-22T09:26:07.714Z,8.63
2019-05-22T09:28:34.474Z,10.68
2019-05-22T09:31:01.285Z,8.25
2019-05-22T09:33:29.454Z,5.20
2019-05-22T09:35:56.311Z,6.72
2019-05-22T09:38:23.151Z,5.75
2019-05-22T09:40:49.999Z,6.47
2019-05-22T09:43:16.566Z,7.12
2019-05-22T09:45:43.321Z,7.87
2019-05-22T09:48:10.602Z,6.53
2019-05-22T09:50:37.568Z,5.67
2019-05-22T09:53:06.086Z,6.22
2019-05-22T09:55:33.291Z,5.62
2019-05-22T09:57:59.813Z,5.72
2019-05-22T10:00:26.654Z,7.28
2019-05-22T10:02:53.636Z,8.45
2019-05-22T10:05:20.412Z,4.78
2019-05-22T10:08:00.035Z,6.33
2019-05-22T10:10:16.177Z,3.95
2019-05-22T10:12:43.347Z,8.43
2019-05-22T10:15:11.160Z,7.85
2019-05-22T10:17:41.845Z,9.58
2019-05-22T10:20:10.411Z,29.60
2019-05-22T10:22:38.259Z,17.27
2019-05-22T10:25:15.652Z,5.85
2019-05-22T10:27:34.791Z,10.53
2019-05-22T10:30:04.709Z,5.17
2019-05-22T10:32:32.553Z,10.82
2019-05-22T10:34:59.574Z,16.42
2019-05-22T10:37:27.245Z,26.40
2019-05-22T10:39:54.514Z,13.88
2019-05-22T10:42:21.595Z,6.00
2019-05-22T10:44:48.832Z,12.50
2019-05-22T10:47:18.639Z,6.97
2019-05-22T10:49:44.335Z,6.67
2019-05-22T10:52:11.395Z,4.60
2019-05-22T10:54:38.058Z,9.80
2019-05-22T10:57:05.943Z,6.00
2019-05-22T10:59:32.576Z,6.37
2019-05-22T11:01:59.318Z,5.90
2019-05-22T11:04:27.080Z,7.12
2019-05-22T11:06:56.490Z,15.98
2019-05-22T11:09:23.264Z,3.72
2019-05-22T11:11:50.033Z,4.20
2019-05-22T11:14:17.058Z,5.05
2019-05-22T11:16:44.829Z,3.90
2019-05-22T11:19:11.895Z,5.08
2019-05-22T11:21:38.578Z,3.62
2019-05-22T11:24:06.040Z,6.37
2019-05-22T11:26:33.713Z,10.23
2019-05-22T11:29:01.746Z,6.87
2019-05-22T11:31:28.606Z,3.25
2019-05-22T11:33:55.396Z,5.92
2019-05-22T11:36:22.827Z,4.58
2019-05-22T11:38:49.848Z,5.62
2019-05-22T11:41:17.507Z,4.97
2019-05-22T11:43:45.652Z,6.28
2019-05-22T11:46:13.999Z,3.65
2019-05-22T11:48:40.570Z,6.78
2019-05-22T11:51:07.485Z,4.53
2019-05-22T11:53:34.862Z,7.70
2019-05-22T11:56:01.396Z,3.98
2019-05-22T11:58:28.383Z,3.58
2019-05-22T12:00:55.486Z,5.42
2019-05-22T12:03:22.553Z,5.30
2019-05-22T12:05:50.001Z,3.50
2019-05-22T12:08:16.650Z,5.47
2019-05-22T12:10:43.350Z,4.87
2019-05-22T12:13:10.174Z,4.62
2019-05-22T12:15:36.825Z,7.72
2019-05-22T12:18:04.646Z,7.90
2019-05-22T12:20:32.069Z,4.53
2019-05-22T12:22:59.019Z,5.33
2019-05-22T12:25:27.369Z,4.45
2019-05-22T12:27:54.623Z,3.20
2019-05-22T12:30:21.777Z,5.67
2019-05-22T12:32:51.717Z,3.83
2019-05-22T12:35:21.921Z,5.33
2019-05-22T12:37:51.195Z,4.92
2019-05-22T12:40:20.646Z,4.17
2019-05-22T12:42:47.878Z,5.47
2019-05-22T12:45:18.263Z,3.02
2019-05-22T12:47:45.655Z,38.35
2019-05-22T12:50:15.231Z,3.17
2019-05-22T12:52:46.893Z,7.85
2019-05-22T12:55:14.787Z,4.87
2019-05-22T12:57:41.538Z,4.87
2019-05-22T13:00:09.191Z,4.05
2019-05-22T13:02:36.233Z,8.33
2019-05-22T13:05:05.203Z,6.08
2019-05-22T13:07:32.140Z,4.75
2019-05-22T13:10:00.032Z,3.95
2019-05-22T13:12:26.778Z,5.62
2019-05-22T13:15:08.264Z,4.42
2019-05-22T13:17:23.040Z,3.90
2019-05-22T13:19:50.603Z,6.25
2019-05-22T13:22:22.839Z,4.10
2019-05-22T13:24:49.470Z,20.05
2019-05-22T13:27:19.216Z,4.40
2019-05-22T13:29:47.382Z,2.75
2019-05-22T13:32:16.647Z,3.27
2019-05-22T13:34:44.304Z,4.70
2019-05-22T13:37:11.846Z,9.40
2019-05-22T13:39:40.071Z,3.92
2019-05-22T13:42:07.518Z,3.90
2019-05-22T13:44:34.595Z,8.73
2019-05-22T13:47:01.410Z,5.83
2019-05-22T13:49:30.158Z,5.15
2019-05-22T13:51:58.705Z,6.58
2019-05-22T13:54:25.842Z,5.72
2019-05-22T13:56:52.501Z,6.00
2019-05-22T13:59:19.685Z,5.58
2019-05-22T14:01:46.578Z,3.80
2019-05-22T14:04:13.422Z,4.47
2019-05-22T14:06:40.412Z,3.83
2019-05-22T14:09:10.678Z,3.52
2019-05-22T14:11:37.423Z,3.08
2019-05-22T14:14:04.481Z,3.98
2019-05-22T14:16:31.145Z,2.60
2019-05-22T14:18:57.808Z,4.05
2019-05-22T14:21:24.542Z,4.78
2019-05-22T14:23:51.097Z,4.58
2019-05-22T14:26:17.876Z,3.37
2019-05-22T14:28:44.605Z,5.10
2019-05-22T14:31:11.343Z,4.25
2019-05-22T14:33:40.559Z,2.95
2019-05-22T14:36:07.671Z,3.22
2019-05-22T14:38:35.113Z,5.60
2019-05-22T14:41:02.766Z,3.52
2019-05-22T14:43:29.916Z,3.75
2019-05-22T14:45:57.150Z,2.37
2019-05-22T14:48:24.440Z,3.10
2019-05-22T14:50:51.101Z,3.65
2019-05-22T14:53:18.063Z,3.12
2019-05-22T14:55:46.620Z,3.75
2019-05-22T14:58:13.879Z,3.58
2019-05-22T15:00:41.543Z,4.58
2019-05-22T15:03:08.503Z,4.12
2019-05-22T15:05:35.662Z,18.55
2019-05-22T15:08:03.448Z,17.02
2019-05-22T15:10:30.140Z,8.38
2019-05-22T15:12:56.792Z,18.42
2019-05-22T15:15:24.246Z,6.05
2019-05-22T15:17:51.024Z,3.35
2019-05-22T15:20:23.283Z,5.37
2019-05-22T15:22:50.103Z,4.45
2019-05-22T15:25:17.190Z,1.57
2019-05-22T15:27:44.371Z,1.30
2019-05-22T15:30:11.939Z,4.85
2019-05-22T15:32:39.421Z,5.65
2019-05-22T15:35:06.861Z,3.60
2019-05-22T15:37:35.543Z,4.53
2019-05-22T15:40:05.523Z,2.05
2019-05-22T15:42:39.245Z,4.67
2019-05-22T15:45:20.245Z,7.20
2019-05-22T15:47:55.316Z,9.70
2019-05-22T15:50:20.756Z,13.03
2019-05-22T15:52:54.026Z,8.13
2019-05-22T15:55:31.483Z,6.15
2019-05-22T15:58:00.119Z,5.30
2019-05-22T16:00:30.550Z,22.45
2019-05-22T16:03:00.053Z,5.10
2019-05-22T16:05:28.418Z,7.55
2019-05-22T16:07:55.091Z,4.90
2019-05-22T16:10:22.666Z,2.67
2019-05-22T16:12:49.428Z,4.47
2019-05-22T16:15:17.991Z,5.08
2019-05-22T16:17:47.548Z,8.73
2019-05-22T16:20:17.933Z,6.35
2019-05-22T16:22:44.996Z,8.60
2019-05-22T16:25:12.455Z,4.37
2019-05-22T16:27:39.764Z,4.65
2019-05-22T16:30:06.718Z,3.52
2019-05-22T16:32:36.296Z,3.65
2019-05-22T16:35:05.094Z,6.60
2019-05-22T16:37:36.910Z,4.97
2019-05-22T16:40:09.034Z,4.40
2019-05-22T16:42:36.587Z,19.48
2019-05-22T16:45:06.346Z,7.87
2019-05-22T16:47:35.439Z,7.80
2019-05-22T16:50:03.674Z,7.20
2019-05-22T16:52:30.897Z,11.18
2019-05-22T16:54:57.907Z,5.42
2019-05-22T16:57:25.051Z,5.95
2019-05-22T16:59:51.775Z,8.30
2019-05-22T17:02:31.342Z,8.03
2019-05-22T18:16:04.635Z,4.62
2019-05-22T18:52:40.456Z,5.15
2019-05-22T18:55:04.603Z,4.40
2019-05-22T18:58:00.353Z,4.25
2019-05-22T19:06:41.775Z,4.92
2019-05-22T19:09:09.285Z,6.50
2019-05-22T19:11:41.432Z,3.92
2019-05-22T20:55:26.074Z,4.08
2019-05-22T20:57:57.589Z,4.75
2019-05-22T21:00:26.276Z,5.22
2019-05-22T21:02:57.595Z,4.78
2019-05-22T21:05:25.415Z,5.17
2019-05-22T21:08:00.520Z,4.35
2019-05-22T21:10:28.865Z,4.78
2019-05-22T21:13:01.077Z,5.58
2019-05-22T21:15:29.079Z,4.45
2019-05-22T21:17:59.208Z,3.70
2019-05-22T21:20:30.017Z,5.70
2019-05-22T21:22:59.853Z,4.15
2019-05-22T21:25:27.669Z,5.42
2019-05-22T21:27:55.577Z,4.00
2019-05-22T21:30:25.659Z,5.33
2019-05-22T21:32:54.375Z,3.17
2019-05-22T21:35:23.247Z,4.17
2019-05-22T21:37:51.036Z,6.42
2019-05-22T21:40:19.228Z,4.75
2019-05-22T21:42:46.842Z,3.98
2019-05-22T21:45:14.327Z,5.33
2019-05-22T21:47:41.135Z,3.80
2019-05-22T21:50:09.822Z,5.00
2019-05-22T21:52:36.953Z,8.28
2019-05-22T21:55:24.387Z,6.70
2019-05-22T21:57:52.242Z,7.05
2019-05-22T22:00:40.102Z,6.28
2019-05-22T22:03:11.756Z,8.28
2019-05-22T22:05:39.996Z,6.33
2019-05-22T22:08:07.113Z,7.08
2019-05-22T22:10:33.810Z,7.75
2019-05-22T22:13:02.064Z,6.75
2019-05-22T22:15:31.016Z,6.03
2019-05-22T22:17:57.958Z,8.48
2019-05-22T22:20:24.628Z,10.82
2019-05-22T22:22:51.904Z,6.80
2019-05-22T22:25:21.082Z,6.10
2019-05-22T22:27:48.370Z,4.42
2019-05-22T22:30:19.857Z,5.28
2019-05-22T22:32:46.698Z,4.42
2019-05-22T22:35:14.574Z,3.60
2019-05-22T22:37:41.240Z,8.05
2019-05-22T22:40:08.853Z,5.22
2019-05-22T22:42:37.434Z,5.50
2019-05-22T22:45:09.413Z,4.97
2019-05-22T22:47:38.042Z,4.47
2019-05-22T22:50:07.190Z,11.08
2019-05-22T22:52:34.442Z,6.78
2019-05-22T22:55:01.102Z,5.35
2019-05-22T22:57:29.463Z,7.47
2019-05-22T22:59:56.832Z,8.30
2019-05-22T23:02:28.880Z,24.32
2019-05-22T23:04:55.427Z,38.50
2019-05-22T23:07:24.194Z,78.95
2019-05-22T23:09:51.634Z,36.55
2019-05-22T23:12:19.062Z,90.67
2019-05-22T23:14:50.046Z,35.73
2019-05-22T23:17:18.386Z,32.08
2019-05-22T23:19:45.451Z,11.70
2019-05-22T23:22:19.488Z,11.12
2019-05-22T23:24:48.958Z,20.05
2019-05-22T23:27:17.402Z,11.70
2019-05-22T23:29:44.562Z,16.45
2019-05-22T23:32:11.895Z,13.95
2019-05-22T23:34:38.743Z,12.63
2019-05-22T23:37:07.802Z,17.45
2019-05-22T23:39:35.571Z,14.43
2019-05-22T23:42:07.706Z,16.50
2019-05-22T23:44:35.348Z,13.50
2019-05-22T23:47:03.365Z,41.25
2019-05-22T23:49:30.831Z,39.45
2019-05-22T23:51:57.888Z,72.20
2019-05-22T23:54:25.361Z,62.00
2019-05-22T23:56:53.889Z,131.93
2019-05-22T23:59:20.768Z,29.32
